sensor_id;sensor_type;location;lat;lon;timestamp;temperature;humidity
41220;DHT22;26951;47.338;9.196;2023-04-24T00:01:35;8.90;72.40
41220;DHT22;26951;47.338;9.196;2023-04-24T00:04:21;8.80;73.30
41220;DHT22;26951;47.338;9.196;2023-04-24T00:07:05;8.90;74.10
41220;DHT22;26951;47.338;9.196;2023-04-24T00:09:50;8.90;74.30
41220;DHT22;26951;47.338;9.196;2023-04-24T00:12:34;8.90;73.80
41220;DHT22;26951;47.338;9.196;2023-04-24T00:15:19;8.80;73.30
41220;DHT22;26951;47.338;9.196;2023-04-24T00:18:03;8.80;73.50
41220;DHT22;26951;47.338;9.196;2023-04-24T00:20:47;8.80;73.70
41220;DHT22;26951;47.338;9.196;2023-04-24T00:23:31;8.90;74.10
41220;DHT22;26951;47.338;9.196;2023-04-24T00:26:15;8.90;74.50
41220;DHT22;26951;47.338;9.196;2023-04-24T00:28:59;8.90;74.60
41220;DHT22;26951;47.338;9.196;2023-04-24T00:31:43;8.90;73.80
41220;DHT22;26951;47.338;9.196;2023-04-24T00:34:28;8.90;73.60
41220;DHT22;26951;47.338;9.196;2023-04-24T00:37:12;8.90;74.20
41220;DHT22;26951;47.338;9.196;2023-04-24T00:39:56;8.90;74.00
41220;DHT22;26951;47.338;9.196;2023-04-24T00:42:40;8.80;73.90
41220;DHT22;26951;47.338;9.196;2023-04-24T00:45:24;8.80;73.80
41220;DHT22;26951;47.338;9.196;2023-04-24T00:48:09;8.80;73.70
41220;DHT22;26951;47.338;9.196;2023-04-24T00:50:53;8.80;73.80
41220;DHT22;26951;47.338;9.196;2023-04-24T00:53:37;8.80;73.60
41220;DHT22;26951;47.338;9.196;2023-04-24T00:56:21;8.80;74.00
41220;DHT22;26951;47.338;9.196;2023-04-24T00:59:06;8.80;74.60
41220;DHT22;26951;47.338;9.196;2023-04-24T01:05:00;8.80;75.70
41220;DHT22;26951;47.338;9.196;2023-04-24T01:07:46;8.80;75.70
41220;DHT22;26951;47.338;9.196;2023-04-24T01:10:33;8.80;75.40
41220;DHT22;26951;47.338;9.196;2023-04-24T01:13:19;8.80;75.70
41220;DHT22;26951;47.338;9.196;2023-04-24T01:16:04;8.80;77.10
41220;DHT22;26951;47.338;9.196;2023-04-24T01:18:48;8.80;76.80
41220;DHT22;26951;47.338;9.196;2023-04-24T01:21:36;8.80;75.00
41220;DHT22;26951;47.338;9.196;2023-04-24T01:24:21;8.80;74.60
41220;DHT22;26951;47.338;9.196;2023-04-24T01:27:05;8.70;74.50
41220;DHT22;26951;47.338;9.196;2023-04-24T01:29:49;8.70;73.70
41220;DHT22;26951;47.338;9.196;2023-04-24T01:32:36;8.70;74.90
41220;DHT22;26951;47.338;9.196;2023-04-24T01:35:21;8.60;75.60
41220;DHT22;26951;47.338;9.196;2023-04-24T01:38:05;8.60;75.70
41220;DHT22;26951;47.338;9.196;2023-04-24T01:40:50;8.60;75.90
41220;DHT22;26951;47.338;9.196;2023-04-24T01:43:35;8.60;76.60
41220;DHT22;26951;47.338;9.196;2023-04-24T01:46:18;8.60;75.50
41220;DHT22;26951;47.338;9.196;2023-04-24T01:49:03;8.60;75.30
41220;DHT22;26951;47.338;9.196;2023-04-24T01:51:47;8.60;75.30
41220;DHT22;26951;47.338;9.196;2023-04-24T01:54:31;8.60;75.70
41220;DHT22;26951;47.338;9.196;2023-04-24T01:57:16;8.50;74.20
41220;DHT22;26951;47.338;9.196;2023-04-24T02:00:00;8.50;74.30
41220;DHT22;26951;47.338;9.196;2023-04-24T02:02:44;8.50;74.30
41220;DHT22;26951;47.338;9.196;2023-04-24T02:05:28;8.50;74.30
41220;DHT22;26951;47.338;9.196;2023-04-24T02:08:13;8.40;74.30
41220;DHT22;26951;47.338;9.196;2023-04-24T02:10:57;8.40;74.30
41220;DHT22;26951;47.338;9.196;2023-04-24T02:13:41;8.30;75.00
41220;DHT22;26951;47.338;9.196;2023-04-24T02:16:26;8.30;74.90
41220;DHT22;26951;47.338;9.196;2023-04-24T02:19:10;8.30;74.90
41220;DHT22;26951;47.338;9.196;2023-04-24T02:21:54;8.20;75.80
41220;DHT22;26951;47.338;9.196;2023-04-24T02:24:39;8.30;75.40
41220;DHT22;26951;47.338;9.196;2023-04-24T02:27:23;8.30;75.60
41220;DHT22;26951;47.338;9.196;2023-04-24T02:30:07;8.30;75.60
41220;DHT22;26951;47.338;9.196;2023-04-24T02:32:52;8.30;75.40
41220;DHT22;26951;47.338;9.196;2023-04-24T02:35:36;8.20;75.00
41220;DHT22;26951;47.338;9.196;2023-04-24T02:38:20;8.20;74.50
41220;DHT22;26951;47.338;9.196;2023-04-24T02:41:04;8.30;74.50
41220;DHT22;26951;47.338;9.196;2023-04-24T02:43:50;8.20;75.00
41220;DHT22;26951;47.338;9.196;2023-04-24T02:46:34;8.20;75.40
41220;DHT22;26951;47.338;9.196;2023-04-24T02:49:18;8.20;76.20
41220;DHT22;26951;47.338;9.196;2023-04-24T02:52:02;8.20;77.00
41220;DHT22;26951;47.338;9.196;2023-04-24T02:54:46;8.10;77.50
41220;DHT22;26951;47.338;9.196;2023-04-24T02:57:30;8.10;77.20
41220;DHT22;26951;47.338;9.196;2023-04-24T03:00:14;8.10;77.30
41220;DHT22;26951;47.338;9.196;2023-04-24T03:02:59;8.10;78.00
41220;DHT22;26951;47.338;9.196;2023-04-24T03:05:43;8.10;77.40
41220;DHT22;26951;47.338;9.196;2023-04-24T03:08:27;8.10;77.40
41220;DHT22;26951;47.338;9.196;2023-04-24T03:11:11;8.10;77.50
41220;DHT22;26951;47.338;9.196;2023-04-24T03:13:55;8.10;77.60
41220;DHT22;26951;47.338;9.196;2023-04-24T03:16:39;8.10;77.10
41220;DHT22;26951;47.338;9.196;2023-04-24T03:19:23;8.10;77.40
41220;DHT22;26951;47.338;9.196;2023-04-24T03:22:08;8.00;76.70
41220;DHT22;26951;47.338;9.196;2023-04-24T03:24:53;8.00;76.80
41220;DHT22;26951;47.338;9.196;2023-04-24T03:27:38;8.00;76.80
41220;DHT22;26951;47.338;9.196;2023-04-24T03:30:23;8.00;76.90
41220;DHT22;26951;47.338;9.196;2023-04-24T03:33:07;8.00;76.50
41220;DHT22;26951;47.338;9.196;2023-04-24T03:35:51;8.00;75.90
41220;DHT22;26951;47.338;9.196;2023-04-24T03:38:36;7.90;75.70
41220;DHT22;26951;47.338;9.196;2023-04-24T03:41:20;7.90;76.30
41220;DHT22;26951;47.338;9.196;2023-04-24T03:44:06;7.90;75.90
41220;DHT22;26951;47.338;9.196;2023-04-24T03:46:50;8.00;75.90
41220;DHT22;26951;47.338;9.196;2023-04-24T03:49:34;8.00;75.50
41220;DHT22;26951;47.338;9.196;2023-04-24T03:52:18;7.90;75.70
41220;DHT22;26951;47.338;9.196;2023-04-24T03:55:02;7.80;75.50
41220;DHT22;26951;47.338;9.196;2023-04-24T03:57:47;7.80;76.10
41220;DHT22;26951;47.338;9.196;2023-04-24T04:00:31;7.80;75.80
41220;DHT22;26951;47.338;9.196;2023-04-24T04:03:16;7.90;76.30
41220;DHT22;26951;47.338;9.196;2023-04-24T04:06:00;7.90;75.70
41220;DHT22;26951;47.338;9.196;2023-04-24T04:08:44;7.80;75.50
41220;DHT22;26951;47.338;9.196;2023-04-24T04:11:28;7.80;74.80
41220;DHT22;26951;47.338;9.196;2023-04-24T04:14:12;7.80;74.40
41220;DHT22;26951;47.338;9.196;2023-04-24T04:16:56;7.80;74.90
41220;DHT22;26951;47.338;9.196;2023-04-24T04:19:40;7.70;74.20
41220;DHT22;26951;47.338;9.196;2023-04-24T04:22:24;7.70;74.80
41220;DHT22;26951;47.338;9.196;2023-04-24T04:25:09;7.70;74.30
41220;DHT22;26951;47.338;9.196;2023-04-24T04:27:53;7.70;75.00
41220;DHT22;26951;47.338;9.196;2023-04-24T04:30:37;7.70;75.40
41220;DHT22;26951;47.338;9.196;2023-04-24T04:33:22;7.70;74.60
41220;DHT22;26951;47.338;9.196;2023-04-24T04:36:07;7.70;74.00
41220;DHT22;26951;47.338;9.196;2023-04-24T04:38:51;7.70;73.60
41220;DHT22;26951;47.338;9.196;2023-04-24T04:41:35;7.70;74.20
41220;DHT22;26951;47.338;9.196;2023-04-24T04:44:19;7.70;74.60
41220;DHT22;26951;47.338;9.196;2023-04-24T04:47:03;7.70;73.50
41220;DHT22;26951;47.338;9.196;2023-04-24T04:49:49;7.70;73.50
41220;DHT22;26951;47.338;9.196;2023-04-24T04:52:35;7.70;74.40
41220;DHT22;26951;47.338;9.196;2023-04-24T04:55:20;7.70;73.60
41220;DHT22;26951;47.338;9.196;2023-04-24T04:58:03;7.70;74.00
41220;DHT22;26951;47.338;9.196;2023-04-24T05:00:47;7.80;73.70
41220;DHT22;26951;47.338;9.196;2023-04-24T05:03:32;7.80;73.80
41220;DHT22;26951;47.338;9.196;2023-04-24T05:06:16;7.80;73.50
41220;DHT22;26951;47.338;9.196;2023-04-24T05:09:00;7.70;73.60
41220;DHT22;26951;47.338;9.196;2023-04-24T05:11:45;7.70;74.40
41220;DHT22;26951;47.338;9.196;2023-04-24T05:14:29;7.70;74.80
41220;DHT22;26951;47.338;9.196;2023-04-24T05:17:13;7.80;75.80
41220;DHT22;26951;47.338;9.196;2023-04-24T05:19:57;7.80;76.40
41220;DHT22;26951;47.338;9.196;2023-04-24T05:22:41;7.80;75.90
41220;DHT22;26951;47.338;9.196;2023-04-24T05:25:25;7.80;76.00
41220;DHT22;26951;47.338;9.196;2023-04-24T05:28:09;7.80;76.70
41220;DHT22;26951;47.338;9.196;2023-04-24T05:30:54;7.80;76.80
41220;DHT22;26951;47.338;9.196;2023-04-24T05:33:43;7.80;77.40
41220;DHT22;26951;47.338;9.196;2023-04-24T05:36:27;7.80;75.60
41220;DHT22;26951;47.338;9.196;2023-04-24T05:39:11;7.80;75.70
41220;DHT22;26951;47.338;9.196;2023-04-24T05:41:55;7.80;75.90
41220;DHT22;26951;47.338;9.196;2023-04-24T05:44:42;7.80;75.40
41220;DHT22;26951;47.338;9.196;2023-04-24T05:47:26;7.80;75.70
41220;DHT22;26951;47.338;9.196;2023-04-24T05:50:10;7.80;76.40
41220;DHT22;26951;47.338;9.196;2023-04-24T05:52:55;7.80;76.90
41220;DHT22;26951;47.338;9.196;2023-04-24T05:55:40;7.80;75.50
41220;DHT22;26951;47.338;9.196;2023-04-24T05:58:25;7.80;74.50
41220;DHT22;26951;47.338;9.196;2023-04-24T06:01:09;7.80;73.30
41220;DHT22;26951;47.338;9.196;2023-04-24T06:03:53;7.80;75.00
41220;DHT22;26951;47.338;9.196;2023-04-24T06:06:38;7.80;74.60
41220;DHT22;26951;47.338;9.196;2023-04-24T06:09:22;7.80;73.70
41220;DHT22;26951;47.338;9.196;2023-04-24T06:12:07;7.70;72.70
41220;DHT22;26951;47.338;9.196;2023-04-24T06:14:52;7.70;72.70
41220;DHT22;26951;47.338;9.196;2023-04-24T06:17:36;7.60;72.00
41220;DHT22;26951;47.338;9.196;2023-04-24T06:20:20;7.50;71.20
41220;DHT22;26951;47.338;9.196;2023-04-24T06:23:04;7.50;72.30
41220;DHT22;26951;47.338;9.196;2023-04-24T06:25:48;7.40;72.60
41220;DHT22;26951;47.338;9.196;2023-04-24T06:28:33;7.40;72.70
41220;DHT22;26951;47.338;9.196;2023-04-24T06:31:19;7.30;72.90
41220;DHT22;26951;47.338;9.196;2023-04-24T06:34:04;7.30;73.10
41220;DHT22;26951;47.338;9.196;2023-04-24T06:36:48;7.30;74.50
41220;DHT22;26951;47.338;9.196;2023-04-24T06:39:32;7.30;75.70
41220;DHT22;26951;47.338;9.196;2023-04-24T06:42:16;7.30;76.10
41220;DHT22;26951;47.338;9.196;2023-04-24T06:45:01;7.40;76.60
41220;DHT22;26951;47.338;9.196;2023-04-24T06:47:45;7.40;76.40
41220;DHT22;26951;47.338;9.196;2023-04-24T06:50:29;7.40;76.50
41220;DHT22;26951;47.338;9.196;2023-04-24T06:53:13;7.40;75.90
41220;DHT22;26951;47.338;9.196;2023-04-24T06:55:58;7.50;76.30
41220;DHT22;26951;47.338;9.196;2023-04-24T06:58:42;7.50;76.40
41220;DHT22;26951;47.338;9.196;2023-04-24T07:01:27;7.50;76.50
41220;DHT22;26951;47.338;9.196;2023-04-24T07:04:11;7.50;76.60
41220;DHT22;26951;47.338;9.196;2023-04-24T07:06:57;7.60;75.90
41220;DHT22;26951;47.338;9.196;2023-04-24T07:09:42;7.60;76.10
41220;DHT22;26951;47.338;9.196;2023-04-24T07:12:26;7.60;77.30
41220;DHT22;26951;47.338;9.196;2023-04-24T07:15:10;7.60;77.40
41220;DHT22;26951;47.338;9.196;2023-04-24T07:17:55;7.60;76.50
41220;DHT22;26951;47.338;9.196;2023-04-24T07:20:39;7.70;76.10
41220;DHT22;26951;47.338;9.196;2023-04-24T07:23:23;7.70;74.90
41220;DHT22;26951;47.338;9.196;2023-04-24T07:26:07;7.70;71.00
41220;DHT22;26951;47.338;9.196;2023-04-24T07:28:51;7.70;70.80
41220;DHT22;26951;47.338;9.196;2023-04-24T07:31:36;7.70;71.20
41220;DHT22;26951;47.338;9.196;2023-04-24T07:34:20;7.70;71.20
41220;DHT22;26951;47.338;9.196;2023-04-24T07:37:04;7.70;73.30
41220;DHT22;26951;47.338;9.196;2023-04-24T07:39:49;7.80;74.30
41220;DHT22;26951;47.338;9.196;2023-04-24T07:42:33;7.90;73.90
41220;DHT22;26951;47.338;9.196;2023-04-24T07:45:18;8.00;72.30
41220;DHT22;26951;47.338;9.196;2023-04-24T07:48:02;8.20;70.60
41220;DHT22;26951;47.338;9.196;2023-04-24T07:50:47;8.20;71.90
41220;DHT22;26951;47.338;9.196;2023-04-24T07:53:31;8.40;71.20
41220;DHT22;26951;47.338;9.196;2023-04-24T07:56:16;8.60;72.50
41220;DHT22;26951;47.338;9.196;2023-04-24T07:59:01;8.70;71.70
41220;DHT22;26951;47.338;9.196;2023-04-24T08:01:45;8.90;71.20
41220;DHT22;26951;47.338;9.196;2023-04-24T08:04:29;9.00;70.10
41220;DHT22;26951;47.338;9.196;2023-04-24T08:07:13;9.10;69.20
41220;DHT22;26951;47.338;9.196;2023-04-24T08:09:58;9.20;65.10
41220;DHT22;26951;47.338;9.196;2023-04-24T08:12:43;9.30;63.20
41220;DHT22;26951;47.338;9.196;2023-04-24T08:15:27;9.30;65.50
41220;DHT22;26951;47.338;9.196;2023-04-24T08:18:11;9.30;63.90
41220;DHT22;26951;47.338;9.196;2023-04-24T08:20:57;9.20;64.10
41220;DHT22;26951;47.338;9.196;2023-04-24T08:23:45;9.00;61.70
41220;DHT22;26951;47.338;9.196;2023-04-24T08:26:29;8.80;62.70
41220;DHT22;26951;47.338;9.196;2023-04-24T08:29:13;8.60;64.50
41220;DHT22;26951;47.338;9.196;2023-04-24T08:31:57;8.50;64.80
41220;DHT22;26951;47.338;9.196;2023-04-24T08:34:42;8.40;66.90
41220;DHT22;26951;47.338;9.196;2023-04-24T08:37:26;8.40;67.70
41220;DHT22;26951;47.338;9.196;2023-04-24T08:40:13;8.40;67.70
41220;DHT22;26951;47.338;9.196;2023-04-24T08:42:59;8.40;67.60
41220;DHT22;26951;47.338;9.196;2023-04-24T08:45:44;8.30;67.70
41220;DHT22;26951;47.338;9.196;2023-04-24T08:48:28;8.30;68.80
41220;DHT22;26951;47.338;9.196;2023-04-24T08:51:13;8.40;74.00
41220;DHT22;26951;47.338;9.196;2023-04-24T08:53:57;8.70;82.20
41220;DHT22;26951;47.338;9.196;2023-04-24T08:56:43;9.10;76.90
41220;DHT22;26951;47.338;9.196;2023-04-24T08:59:29;9.30;69.60
41220;DHT22;26951;47.338;9.196;2023-04-24T09:02:14;9.50;69.40
41220;DHT22;26951;47.338;9.196;2023-04-24T09:04:59;9.70;70.20
41220;DHT22;26951;47.338;9.196;2023-04-24T09:07:46;10.00;69.40
41220;DHT22;26951;47.338;9.196;2023-04-24T09:10:34;10.40;69.60
41220;DHT22;26951;47.338;9.196;2023-04-24T09:13:21;10.80;66.70
41220;DHT22;26951;47.338;9.196;2023-04-24T09:16:06;10.90;60.10
41220;DHT22;26951;47.338;9.196;2023-04-24T09:18:51;11.10;64.60
41220;DHT22;26951;47.338;9.196;2023-04-24T09:21:35;11.20;61.90
41220;DHT22;26951;47.338;9.196;2023-04-24T09:24:21;11.10;57.00
41220;DHT22;26951;47.338;9.196;2023-04-24T09:27:11;11.00;54.10
41220;DHT22;26951;47.338;9.196;2023-04-24T09:29:56;10.90;58.00
41220;DHT22;26951;47.338;9.196;2023-04-24T09:32:40;10.80;56.70
41220;DHT22;26951;47.338;9.196;2023-04-24T09:35:25;10.60;57.60
41220;DHT22;26951;47.338;9.196;2023-04-24T09:38:09;10.40;57.60
41220;DHT22;26951;47.338;9.196;2023-04-24T09:40:54;10.40;56.80
41220;DHT22;26951;47.338;9.196;2023-04-24T09:43:38;10.40;62.00
41220;DHT22;26951;47.338;9.196;2023-04-24T09:46:30;10.50;60.90
41220;DHT22;26951;47.338;9.196;2023-04-24T09:49:22;10.70;64.90
41220;DHT22;26951;47.338;9.196;2023-04-24T09:52:11;10.70;64.00
41220;DHT22;26951;47.338;9.196;2023-04-24T09:54:55;10.80;61.40
41220;DHT22;26951;47.338;9.196;2023-04-24T09:57:54;10.90;58.80
41220;DHT22;26951;47.338;9.196;2023-04-24T10:00:39;10.90;62.20
41220;DHT22;26951;47.338;9.196;2023-04-24T10:03:24;11.10;60.80
41220;DHT22;26951;47.338;9.196;2023-04-24T10:06:12;11.20;61.50
41220;DHT22;26951;47.338;9.196;2023-04-24T10:08:56;11.20;56.90
41220;DHT22;26951;47.338;9.196;2023-04-24T10:11:43;11.20;54.30
41220;DHT22;26951;47.338;9.196;2023-04-24T10:14:29;11.10;55.80
41220;DHT22;26951;47.338;9.196;2023-04-24T10:17:14;11.00;53.60
41220;DHT22;26951;47.338;9.196;2023-04-24T10:20:00;10.80;53.30
41220;DHT22;26951;47.338;9.196;2023-04-24T10:22:47;10.70;54.80
41220;DHT22;26951;47.338;9.196;2023-04-24T10:25:35;10.50;53.30
41220;DHT22;26951;47.338;9.196;2023-04-24T10:28:20;10.40;55.20
41220;DHT22;26951;47.338;9.196;2023-04-24T10:31:05;10.40;54.10
41220;DHT22;26951;47.338;9.196;2023-04-24T10:33:51;10.30;54.80
41220;DHT22;26951;47.338;9.196;2023-04-24T10:36:39;10.30;56.90
41220;DHT22;26951;47.338;9.196;2023-04-24T10:39:25;10.40;56.60
41220;DHT22;26951;47.338;9.196;2023-04-24T10:42:15;10.60;61.50
41220;DHT22;26951;47.338;9.196;2023-04-24T10:45:05;10.60;54.00
41220;DHT22;26951;47.338;9.196;2023-04-24T10:48:04;10.60;52.60
41220;DHT22;26951;47.338;9.196;2023-04-24T10:50:53;10.40;51.60
41220;DHT22;26951;47.338;9.196;2023-04-24T10:53:37;10.40;50.90
41220;DHT22;26951;47.338;9.196;2023-04-24T10:56:21;10.30;52.90
41220;DHT22;26951;47.338;9.196;2023-04-24T10:59:07;10.30;52.40
41220;DHT22;26951;47.338;9.196;2023-04-24T11:01:54;10.30;53.80
41220;DHT22;26951;47.338;9.196;2023-04-24T11:04:42;10.30;53.90
41220;DHT22;26951;47.338;9.196;2023-04-24T11:07:26;10.20;51.60
41220;DHT22;26951;47.338;9.196;2023-04-24T11:10:25;10.20;53.10
41220;DHT22;26951;47.338;9.196;2023-04-24T11:13:10;10.20;53.30
41220;DHT22;26951;47.338;9.196;2023-04-24T11:22:03;10.20;51.30
41220;DHT22;26951;47.338;9.196;2023-04-24T11:24:50;10.30;50.80
41220;DHT22;26951;47.338;9.196;2023-04-24T11:27:42;10.40;54.50
41220;DHT22;26951;47.338;9.196;2023-04-24T11:30:29;10.60;50.00
41220;DHT22;26951;47.338;9.196;2023-04-24T11:33:19;10.70;50.50
41220;DHT22;26951;47.338;9.196;2023-04-24T11:36:05;10.80;50.20
41220;DHT22;26951;47.338;9.196;2023-04-24T11:38:49;10.90;51.30
41220;DHT22;26951;47.338;9.196;2023-04-24T11:41:34;11.10;52.30
41220;DHT22;26951;47.338;9.196;2023-04-24T11:44:20;11.10;54.00
41220;DHT22;26951;47.338;9.196;2023-04-24T11:47:06;11.00;50.70
41220;DHT22;26951;47.338;9.196;2023-04-24T11:49:53;10.90;52.90
41220;DHT22;26951;47.338;9.196;2023-04-24T11:52:39;10.90;54.20
41220;DHT22;26951;47.338;9.196;2023-04-24T11:58:10;10.80;55.20
41220;DHT22;26951;47.338;9.196;2023-04-24T12:00:57;10.70;56.60
41220;DHT22;26951;47.338;9.196;2023-04-24T12:03:49;10.70;57.30
41220;DHT22;26951;47.338;9.196;2023-04-24T12:06:35;10.60;57.60
41220;DHT22;26951;47.338;9.196;2023-04-24T12:09:18;10.60;58.80
41220;DHT22;26951;47.338;9.196;2023-04-24T12:12:02;10.50;57.10
41220;DHT22;26951;47.338;9.196;2023-04-24T12:14:53;10.60;62.30
41220;DHT22;26951;47.338;9.196;2023-04-24T12:17:41;10.90;64.80
41220;DHT22;26951;47.338;9.196;2023-04-24T12:20:31;11.00;59.10
41220;DHT22;26951;47.338;9.196;2023-04-24T12:23:16;11.10;58.70
41220;DHT22;26951;47.338;9.196;2023-04-24T12:26:04;11.30;58.20
41220;DHT22;26951;47.338;9.196;2023-04-24T12:28:49;11.20;55.90
41220;DHT22;26951;47.338;9.196;2023-04-24T12:31:33;11.20;56.60
41220;DHT22;26951;47.338;9.196;2023-04-24T12:34:22;11.00;54.20
41220;DHT22;26951;47.338;9.196;2023-04-24T12:37:13;11.00;55.50
41220;DHT22;26951;47.338;9.196;2023-04-24T12:40:10;11.00;57.60
41220;DHT22;26951;47.338;9.196;2023-04-24T12:42:54;10.90;57.10
41220;DHT22;26951;47.338;9.196;2023-04-24T12:45:38;10.70;55.00
41220;DHT22;26951;47.338;9.196;2023-04-24T12:48:22;10.60;55.40
41220;DHT22;26951;47.338;9.196;2023-04-24T12:51:06;10.40;56.20
41220;DHT22;26951;47.338;9.196;2023-04-24T12:53:51;10.30;60.10
41220;DHT22;26951;47.338;9.196;2023-04-24T12:56:35;10.40;60.70
41220;DHT22;26951;47.338;9.196;2023-04-24T12:59:23;10.40;61.50
41220;DHT22;26951;47.338;9.196;2023-04-24T13:02:07;10.50;69.40
41220;DHT22;26951;47.338;9.196;2023-04-24T13:04:53;10.70;65.80
41220;DHT22;26951;47.338;9.196;2023-04-24T13:07:37;10.80;63.60
41220;DHT22;26951;47.338;9.196;2023-04-24T13:10:21;10.80;62.30
41220;DHT22;26951;47.338;9.196;2023-04-24T13:13:05;10.80;62.00
41220;DHT22;26951;47.338;9.196;2023-04-24T13:15:49;10.80;60.60
41220;DHT22;26951;47.338;9.196;2023-04-24T13:18:34;10.80;60.50
41220;DHT22;26951;47.338;9.196;2023-04-24T13:21:18;10.90;60.80
41220;DHT22;26951;47.338;9.196;2023-04-24T13:24:03;11.00;61.20
41220;DHT22;26951;47.338;9.196;2023-04-24T13:26:48;11.00;58.40
41220;DHT22;26951;47.338;9.196;2023-04-24T13:29:32;11.10;59.80
41220;DHT22;26951;47.338;9.196;2023-04-24T13:32:16;11.20;61.00
41220;DHT22;26951;47.338;9.196;2023-04-24T13:35:01;11.10;55.80
41220;DHT22;26951;47.338;9.196;2023-04-24T13:37:46;11.10;56.90
41220;DHT22;26951;47.338;9.196;2023-04-24T13:40:30;11.10;55.60
41220;DHT22;26951;47.338;9.196;2023-04-24T13:43:14;11.10;56.80
41220;DHT22;26951;47.338;9.196;2023-04-24T13:45:59;11.10;55.20
41220;DHT22;26951;47.338;9.196;2023-04-24T13:48:46;11.10;56.70
41220;DHT22;26951;47.338;9.196;2023-04-24T13:51:30;11.00;56.60
41220;DHT22;26951;47.338;9.196;2023-04-24T13:54:14;11.00;56.10
41220;DHT22;26951;47.338;9.196;2023-04-24T13:56:58;11.00;54.90
41220;DHT22;26951;47.338;9.196;2023-04-24T13:59:43;11.00;53.80
41220;DHT22;26951;47.338;9.196;2023-04-24T14:02:27;11.00;54.20
41220;DHT22;26951;47.338;9.196;2023-04-24T14:05:12;10.90;53.20
41220;DHT22;26951;47.338;9.196;2023-04-24T14:07:59;10.80;53.70
41220;DHT22;26951;47.338;9.196;2023-04-24T14:10:43;10.80;53.30
41220;DHT22;26951;47.338;9.196;2023-04-24T14:13:28;10.60;54.00
41220;DHT22;26951;47.338;9.196;2023-04-24T14:16:12;10.50;53.70
41220;DHT22;26951;47.338;9.196;2023-04-24T14:18:56;10.50;57.20
41220;DHT22;26951;47.338;9.196;2023-04-24T14:21:40;10.50;60.20
41220;DHT22;26951;47.338;9.196;2023-04-24T14:24:25;10.60;60.90
41220;DHT22;26951;47.338;9.196;2023-04-24T14:27:09;10.70;57.50
41220;DHT22;26951;47.338;9.196;2023-04-24T14:29:53;10.80;56.50
41220;DHT22;26951;47.338;9.196;2023-04-24T14:32:38;10.80;56.70
41220;DHT22;26951;47.338;9.196;2023-04-24T14:35:23;10.90;56.70
41220;DHT22;26951;47.338;9.196;2023-04-24T14:38:07;11.10;55.00
41220;DHT22;26951;47.338;9.196;2023-04-24T14:40:51;11.20;54.70
41220;DHT22;26951;47.338;9.196;2023-04-24T14:43:36;11.40;53.00
41220;DHT22;26951;47.338;9.196;2023-04-24T14:46:20;11.50;49.70
41220;DHT22;26951;47.338;9.196;2023-04-24T14:49:04;11.60;51.80
41220;DHT22;26951;47.338;9.196;2023-04-24T14:51:48;11.60;50.80
41220;DHT22;26951;47.338;9.196;2023-04-24T14:54:33;11.60;50.20
41220;DHT22;26951;47.338;9.196;2023-04-24T14:57:17;11.50;48.70
41220;DHT22;26951;47.338;9.196;2023-04-24T15:00:01;11.50;48.10
41220;DHT22;26951;47.338;9.196;2023-04-24T15:02:45;11.40;45.50
41220;DHT22;26951;47.338;9.196;2023-04-24T15:05:30;11.30;46.80
41220;DHT22;26951;47.338;9.196;2023-04-24T15:08:14;11.30;47.20
41220;DHT22;26951;47.338;9.196;2023-04-24T15:10:58;11.10;46.00
41220;DHT22;26951;47.338;9.196;2023-04-24T15:13:42;11.10;46.60
41220;DHT22;26951;47.338;9.196;2023-04-24T15:16:26;11.00;48.30
41220;DHT22;26951;47.338;9.196;2023-04-24T15:19:11;10.90;47.40
41220;DHT22;26951;47.338;9.196;2023-04-24T15:21:55;10.80;47.20
41220;DHT22;26951;47.338;9.196;2023-04-24T15:24:39;10.70;51.20
41220;DHT22;26951;47.338;9.196;2023-04-24T15:27:23;10.70;56.60
41220;DHT22;26951;47.338;9.196;2023-04-24T15:30:08;10.70;57.60
41220;DHT22;26951;47.338;9.196;2023-04-24T15:32:53;10.60;56.70
41220;DHT22;26951;47.338;9.196;2023-04-24T15:35:37;10.60;56.40
41220;DHT22;26951;47.338;9.196;2023-04-24T15:38:22;10.50;56.90
41220;DHT22;26951;47.338;9.196;2023-04-24T15:41:05;10.50;57.10
41220;DHT22;26951;47.338;9.196;2023-04-24T15:43:50;10.50;57.00
41220;DHT22;26951;47.338;9.196;2023-04-24T15:46:35;10.60;59.00
41220;DHT22;26951;47.338;9.196;2023-04-24T15:49:19;10.70;62.10
41220;DHT22;26951;47.338;9.196;2023-04-24T15:52:03;10.80;61.60
41220;DHT22;26951;47.338;9.196;2023-04-24T15:54:48;10.90;61.20
41220;DHT22;26951;47.338;9.196;2023-04-24T15:57:32;11.00;59.50
41220;DHT22;26951;47.338;9.196;2023-04-24T16:00:17;11.10;59.70
41220;DHT22;26951;47.338;9.196;2023-04-24T16:03:01;11.10;56.20
41220;DHT22;26951;47.338;9.196;2023-04-24T16:05:46;11.10;57.00
41220;DHT22;26951;47.338;9.196;2023-04-24T16:08:30;11.20;58.90
41220;DHT22;26951;47.338;9.196;2023-04-24T16:11:14;11.30;54.40
41220;DHT22;26951;47.338;9.196;2023-04-24T16:13:58;11.40;54.40
41220;DHT22;26951;47.338;9.196;2023-04-24T16:16:42;11.40;53.60
41220;DHT22;26951;47.338;9.196;2023-04-24T16:19:26;11.50;57.20
41220;DHT22;26951;47.338;9.196;2023-04-24T16:22:10;11.60;55.20
41220;DHT22;26951;47.338;9.196;2023-04-24T16:24:55;11.60;57.60
41220;DHT22;26951;47.338;9.196;2023-04-24T16:27:40;11.70;54.40
41220;DHT22;26951;47.338;9.196;2023-04-24T16:30:24;11.70;53.10
41220;DHT22;26951;47.338;9.196;2023-04-24T16:33:08;11.70;52.80
41220;DHT22;26951;47.338;9.196;2023-04-24T16:35:54;11.70;50.30
41220;DHT22;26951;47.338;9.196;2023-04-24T16:38:38;11.70;50.30
41220;DHT22;26951;47.338;9.196;2023-04-24T16:41:23;11.60;49.70
41220;DHT22;26951;47.338;9.196;2023-04-24T16:44:07;11.60;50.70
41220;DHT22;26951;47.338;9.196;2023-04-24T16:46:51;11.50;50.10
41220;DHT22;26951;47.338;9.196;2023-04-24T16:49:36;11.40;49.40
41220;DHT22;26951;47.338;9.196;2023-04-24T16:52:19;11.30;49.20
41220;DHT22;26951;47.338;9.196;2023-04-24T16:55:04;11.30;50.50
41220;DHT22;26951;47.338;9.196;2023-04-24T16:57:48;11.20;51.00
41220;DHT22;26951;47.338;9.196;2023-04-24T17:00:32;11.20;48.70
41220;DHT22;26951;47.338;9.196;2023-04-24T17:03:17;11.10;49.30
41220;DHT22;26951;47.338;9.196;2023-04-24T17:06:01;11.00;50.10
41220;DHT22;26951;47.338;9.196;2023-04-24T17:08:45;10.90;50.10
41220;DHT22;26951;47.338;9.196;2023-04-24T17:11:29;10.90;49.70
41220;DHT22;26951;47.338;9.196;2023-04-24T17:14:14;10.70;50.00
41220;DHT22;26951;47.338;9.196;2023-04-24T17:16:59;10.70;51.40
41220;DHT22;26951;47.338;9.196;2023-04-24T17:19:43;10.70;51.60
41220;DHT22;26951;47.338;9.196;2023-04-24T17:22:27;10.70;53.60
41220;DHT22;26951;47.338;9.196;2023-04-24T17:25:12;10.60;52.90
41220;DHT22;26951;47.338;9.196;2023-04-24T17:27:56;10.40;52.90
41220;DHT22;26951;47.338;9.196;2023-04-24T17:30:40;10.20;54.10
41220;DHT22;26951;47.338;9.196;2023-04-24T17:33:28;10.10;54.80
41220;DHT22;26951;47.338;9.196;2023-04-24T17:36:16;9.90;54.60
41220;DHT22;26951;47.338;9.196;2023-04-24T17:39:00;9.80;55.60
41220;DHT22;26951;47.338;9.196;2023-04-24T17:41:44;9.70;55.10
41220;DHT22;26951;47.338;9.196;2023-04-24T17:44:28;9.60;54.10